sensor_id;sensor_type;location;lat;lon;timestamp;temperature;humidity
24152;DHT22;12311;50.866;4.332;2023-06-10T00:02:07;23.00;99.90
24152;DHT22;12311;50.866;4.332;2023-06-10T00:04:33;22.90;99.90
24152;DHT22;12311;50.866;4.332;2023-06-10T00:06:59;23.00;99.90
24152;DHT22;12311;50.866;4.332;2023-06-10T00:09:25;22.90;99.90
24152;DHT22;12311;50.866;4.332;2023-06-10T00:11:52;22.90;99.90
24152;DHT22;12311;50.866;4.332;2023-06-10T00:14:17;22.80;99.90
24152;DHT22;12311;50.866;4.332;2023-06-10T00:16:43;22.80;99.90
24152;DHT22;12311;50.866;4.332;2023-06-10T00:19:10;22.70;99.90
24152;DHT22;12311;50.866;4.332;2023-06-10T00:21:39;22.70;99.90
24152;DHT22;12311;50.866;4.332;2023-06-10T00:24:08;22.60;99.90
24152;DHT22;12311;50.866;4.332;2023-06-10T00:26:41;22.60;99.90
24152;DHT22;12311;50.866;4.332;2023-06-10T00:29:07;22.50;99.90
24152;DHT22;12311;50.866;4.332;2023-06-10T00:31:37;22.40;99.90
24152;DHT22;12311;50.866;4.332;2023-06-10T00:34:03;22.40;99.90
24152;DHT22;12311;50.866;4.332;2023-06-10T00:36:29;22.30;99.90
24152;DHT22;12311;50.866;4.332;2023-06-10T00:38:56;22.20;99.90
24152;DHT22;12311;50.866;4.332;2023-06-10T00:41:22;22.20;99.90
24152;DHT22;12311;50.866;4.332;2023-06-10T00:43:47;22.20;99.90
24152;DHT22;12311;50.866;4.332;2023-06-10T00:46:13;22.20;99.90
24152;DHT22;12311;50.866;4.332;2023-06-10T00:48:40;22.10;99.90
24152;DHT22;12311;50.866;4.332;2023-06-10T00:51:07;22.10;99.90
24152;DHT22;12311;50.866;4.332;2023-06-10T00:53:35;22.00;99.90
24152;DHT22;12311;50.866;4.332;2023-06-10T00:56:02;22.00;99.90
24152;DHT22;12311;50.866;4.332;2023-06-10T00:58:28;21.90;99.90
24152;DHT22;12311;50.866;4.332;2023-06-10T01:00:53;21.90;99.90
24152;DHT22;12311;50.866;4.332;2023-06-10T01:03:19;21.90;99.90
24152;DHT22;12311;50.866;4.332;2023-06-10T01:05:53;21.90;99.90
24152;DHT22;12311;50.866;4.332;2023-06-10T01:11:00;21.70;99.90
24152;DHT22;12311;50.866;4.332;2023-06-10T01:13:28;21.70;99.90
24152;DHT22;12311;50.866;4.332;2023-06-10T01:15:55;21.70;99.90
24152;DHT22;12311;50.866;4.332;2023-06-10T01:18:21;21.60;99.90
24152;DHT22;12311;50.866;4.332;2023-06-10T01:20:47;21.50;99.90
24152;DHT22;12311;50.866;4.332;2023-06-10T01:23:14;21.50;99.90
24152;DHT22;12311;50.866;4.332;2023-06-10T01:25:53;21.50;99.90
24152;DHT22;12311;50.866;4.332;2023-06-10T01:33:19;21.40;99.90
24152;DHT22;12311;50.866;4.332;2023-06-10T01:35:48;21.30;99.90
24152;DHT22;12311;50.866;4.332;2023-06-10T01:38:15;21.30;99.90
24152;DHT22;12311;50.866;4.332;2023-06-10T01:40:43;21.20;99.90
24152;DHT22;12311;50.866;4.332;2023-06-10T01:43:09;21.30;99.90
24152;DHT22;12311;50.866;4.332;2023-06-10T01:45:34;21.30;99.90
24152;DHT22;12311;50.866;4.332;2023-06-10T01:48:00;21.30;99.90
24152;DHT22;12311;50.866;4.332;2023-06-10T01:50:26;21.10;99.90
24152;DHT22;12311;50.866;4.332;2023-06-10T01:52:51;21.10;99.90
24152;DHT22;12311;50.866;4.332;2023-06-10T01:55:17;21.00;99.90
24152;DHT22;12311;50.866;4.332;2023-06-10T01:57:43;21.00;99.90
24152;DHT22;12311;50.866;4.332;2023-06-10T02:00:09;21.00;99.90
24152;DHT22;12311;50.866;4.332;2023-06-10T02:02:35;21.00;99.90
24152;DHT22;12311;50.866;4.332;2023-06-10T02:05:01;21.00;99.90
24152;DHT22;12311;50.866;4.332;2023-06-10T02:07:27;21.10;99.90
24152;DHT22;12311;50.866;4.332;2023-06-10T02:09:52;21.00;99.90
24152;DHT22;12311;50.866;4.332;2023-06-10T02:12:18;20.90;99.90
24152;DHT22;12311;50.866;4.332;2023-06-10T02:14:43;20.90;99.90
24152;DHT22;12311;50.866;4.332;2023-06-10T02:17:09;20.90;99.90
24152;DHT22;12311;50.866;4.332;2023-06-10T02:19:38;20.90;99.90
24152;DHT22;12311;50.866;4.332;2023-06-10T02:22:08;20.90;99.90
24152;DHT22;12311;50.866;4.332;2023-06-10T02:24:35;20.80;99.90
24152;DHT22;12311;50.866;4.332;2023-06-10T02:27:00;20.70;99.90
24152;DHT22;12311;50.866;4.332;2023-06-10T02:29:27;20.80;99.90
24152;DHT22;12311;50.866;4.332;2023-06-10T02:31:53;20.70;99.90
24152;DHT22;12311;50.866;4.332;2023-06-10T02:34:18;20.80;99.90
24152;DHT22;12311;50.866;4.332;2023-06-10T02:36:44;20.70;99.90
24152;DHT22;12311;50.866;4.332;2023-06-10T02:39:10;20.70;99.90
24152;DHT22;12311;50.866;4.332;2023-06-10T02:41:35;20.70;99.90
24152;DHT22;12311;50.866;4.332;2023-06-10T02:44:01;20.60;99.90
24152;DHT22;12311;50.866;4.332;2023-06-10T02:46:27;20.70;99.90
24152;DHT22;12311;50.866;4.332;2023-06-10T02:48:54;20.60;99.90
24152;DHT22;12311;50.866;4.332;2023-06-10T02:51:19;20.60;99.90
24152;DHT22;12311;50.866;4.332;2023-06-10T02:53:46;20.60;99.90
24152;DHT22;12311;50.866;4.332;2023-06-10T02:56:13;20.60;99.90
24152;DHT22;12311;50.866;4.332;2023-06-10T02:58:39;20.60;99.90
24152;DHT22;12311;50.866;4.332;2023-06-10T03:01:04;20.50;99.90
24152;DHT22;12311;50.866;4.332;2023-06-10T03:03:30;20.50;99.90
24152;DHT22;12311;50.866;4.332;2023-06-10T03:05:56;20.40;99.90
24152;DHT22;12311;50.866;4.332;2023-06-10T03:08:22;20.40;99.90
24152;DHT22;12311;50.866;4.332;2023-06-10T03:10:47;20.40;99.90
24152;DHT22;12311;50.866;4.332;2023-06-10T03:13:13;20.40;99.90
24152;DHT22;12311;50.866;4.332;2023-06-10T03:15:40;20.40;99.90
24152;DHT22;12311;50.866;4.332;2023-06-10T03:18:06;20.40;99.90
24152;DHT22;12311;50.866;4.332;2023-06-10T03:20:32;20.40;99.90
24152;DHT22;12311;50.866;4.332;2023-06-10T03:23:03;20.30;99.90
24152;DHT22;12311;50.866;4.332;2023-06-10T03:25:29;20.30;99.90
24152;DHT22;12311;50.866;4.332;2023-06-10T03:27:56;20.30;99.90
24152;DHT22;12311;50.866;4.332;2023-06-10T03:30:21;20.30;99.90
24152;DHT22;12311;50.866;4.332;2023-06-10T03:32:48;20.30;99.90
24152;DHT22;12311;50.866;4.332;2023-06-10T03:35:14;20.20;99.90
24152;DHT22;12311;50.866;4.332;2023-06-10T03:37:40;20.20;99.90
24152;DHT22;12311;50.866;4.332;2023-06-10T03:40:07;20.30;99.90
24152;DHT22;12311;50.866;4.332;2023-06-10T03:42:37;20.30;99.90
24152;DHT22;12311;50.866;4.332;2023-06-10T03:45:03;20.20;99.90
24152;DHT22;12311;50.866;4.332;2023-06-10T03:47:36;20.20;99.90
24152;DHT22;12311;50.866;4.332;2023-06-10T03:50:06;20.20;99.90
24152;DHT22;12311;50.866;4.332;2023-06-10T03:52:32;20.30;99.90
24152;DHT22;12311;50.866;4.332;2023-06-10T03:54:57;20.30;99.90
24152;DHT22;12311;50.866;4.332;2023-06-10T03:57:23;20.30;99.90
24152;DHT22;12311;50.866;4.332;2023-06-10T03:59:49;20.30;99.90
24152;DHT22;12311;50.866;4.332;2023-06-10T04:02:14;20.40;99.90
24152;DHT22;12311;50.866;4.332;2023-06-10T04:04:41;20.40;99.90
24152;DHT22;12311;50.866;4.332;2023-06-10T04:07:08;20.30;99.90
24152;DHT22;12311;50.866;4.332;2023-06-10T04:09:34;20.30;99.90
24152;DHT22;12311;50.866;4.332;2023-06-10T04:12:01;20.30;99.90
24152;DHT22;12311;50.866;4.332;2023-06-10T04:14:27;20.20;99.90
24152;DHT22;12311;50.866;4.332;2023-06-10T04:16:53;20.20;99.90
24152;DHT22;12311;50.866;4.332;2023-06-10T04:19:19;20.20;99.90
24152;DHT22;12311;50.866;4.332;2023-06-10T04:21:45;20.20;99.90
24152;DHT22;12311;50.866;4.332;2023-06-10T04:24:11;20.20;99.90
24152;DHT22;12311;50.866;4.332;2023-06-10T04:26:37;20.20;99.90
24152;DHT22;12311;50.866;4.332;2023-06-10T04:29:03;20.30;99.90
24152;DHT22;12311;50.866;4.332;2023-06-10T04:31:29;20.30;99.90
24152;DHT22;12311;50.866;4.332;2023-06-10T04:33:55;20.20;99.90
24152;DHT22;12311;50.866;4.332;2023-06-10T04:36:21;20.20;99.90
24152;DHT22;12311;50.866;4.332;2023-06-10T04:38:46;20.30;99.90
24152;DHT22;12311;50.866;4.332;2023-06-10T04:41:12;20.40;99.90
24152;DHT22;12311;50.866;4.332;2023-06-10T04:43:38;20.40;99.90
24152;DHT22;12311;50.866;4.332;2023-06-10T04:46:04;20.40;99.90
24152;DHT22;12311;50.866;4.332;2023-06-10T04:48:30;20.40;99.90
24152;DHT22;12311;50.866;4.332;2023-06-10T04:50:56;20.40;99.90
24152;DHT22;12311;50.866;4.332;2023-06-10T04:53:22;20.50;99.90
24152;DHT22;12311;50.866;4.332;2023-06-10T04:55:48;20.50;99.90
24152;DHT22;12311;50.866;4.332;2023-06-10T04:58:14;20.50;99.90
24152;DHT22;12311;50.866;4.332;2023-06-10T05:00:41;20.50;99.90
24152;DHT22;12311;50.866;4.332;2023-06-10T05:03:07;20.50;99.90
24152;DHT22;12311;50.866;4.332;2023-06-10T05:05:32;20.60;99.90
24152;DHT22;12311;50.866;4.332;2023-06-10T05:07:58;20.70;99.90
24152;DHT22;12311;50.866;4.332;2023-06-10T05:10:24;20.70;99.90
24152;DHT22;12311;50.866;4.332;2023-06-10T05:12:49;20.70;99.90
24152;DHT22;12311;50.866;4.332;2023-06-10T05:15:15;20.70;99.90
24152;DHT22;12311;50.866;4.332;2023-06-10T05:17:40;20.80;99.90
24152;DHT22;12311;50.866;4.332;2023-06-10T05:20:06;20.80;99.90
24152;DHT22;12311;50.866;4.332;2023-06-10T05:22:32;20.80;99.90
24152;DHT22;12311;50.866;4.332;2023-06-10T05:24:58;21.00;99.90
24152;DHT22;12311;50.866;4.332;2023-06-10T05:27:23;21.10;99.90
24152;DHT22;12311;50.866;4.332;2023-06-10T05:29:49;21.20;99.90
24152;DHT22;12311;50.866;4.332;2023-06-10T05:32:17;21.20;99.90
24152;DHT22;12311;50.866;4.332;2023-06-10T05:34:43;21.30;99.90
24152;DHT22;12311;50.866;4.332;2023-06-10T05:37:08;21.30;99.90
24152;DHT22;12311;50.866;4.332;2023-06-10T05:39:36;21.30;99.90
24152;DHT22;12311;50.866;4.332;2023-06-10T05:42:06;21.40;99.90
24152;DHT22;12311;50.866;4.332;2023-06-10T05:44:32;21.40;99.90
24152;DHT22;12311;50.866;4.332;2023-06-10T05:46:58;21.50;99.90
24152;DHT22;12311;50.866;4.332;2023-06-10T05:49:23;21.50;99.90
24152;DHT22;12311;50.866;4.332;2023-06-10T05:51:49;21.70;99.90
24152;DHT22;12311;50.866;4.332;2023-06-10T05:54:15;21.70;99.90
24152;DHT22;12311;50.866;4.332;2023-06-10T05:56:41;21.80;99.90
24152;DHT22;12311;50.866;4.332;2023-06-10T05:59:06;21.80;99.90
24152;DHT22;12311;50.866;4.332;2023-06-10T06:01:32;21.90;99.90
24152;DHT22;12311;50.866;4.332;2023-06-10T06:03:58;22.00;99.90
24152;DHT22;12311;50.866;4.332;2023-06-10T06:06:23;22.00;99.90
24152;DHT22;12311;50.866;4.332;2023-06-10T06:08:49;22.00;99.90
24152;DHT22;12311;50.866;4.332;2023-06-10T06:11:15;22.00;99.90
24152;DHT22;12311;50.866;4.332;2023-06-10T06:13:41;22.20;99.90
24152;DHT22;12311;50.866;4.332;2023-06-10T06:16:07;22.30;99.90
24152;DHT22;12311;50.866;4.332;2023-06-10T06:18:33;22.40;99.90
24152;DHT22;12311;50.866;4.332;2023-06-10T06:20:59;22.50;99.90
24152;DHT22;12311;50.866;4.332;2023-06-10T06:23:25;22.60;99.90
24152;DHT22;12311;50.866;4.332;2023-06-10T06:25:51;22.60;99.90
24152;DHT22;12311;50.866;4.332;2023-06-10T06:28:17;22.70;99.90
24152;DHT22;12311;50.866;4.332;2023-06-10T06:30:44;22.80;99.90
24152;DHT22;12311;50.866;4.332;2023-06-10T06:33:10;22.90;99.90
24152;DHT22;12311;50.866;4.332;2023-06-10T06:35:36;22.90;99.90
24152;DHT22;12311;50.866;4.332;2023-06-10T06:38:03;22.80;99.90
24152;DHT22;12311;50.866;4.332;2023-06-10T06:40:29;22.90;99.90
24152;DHT22;12311;50.866;4.332;2023-06-10T06:42:55;23.00;99.90
24152;DHT22;12311;50.866;4.332;2023-06-10T06:45:21;23.00;99.90
24152;DHT22;12311;50.866;4.332;2023-06-10T06:47:46;23.20;99.90
24152;DHT22;12311;50.866;4.332;2023-06-10T06:50:12;23.40;99.90
24152;DHT22;12311;50.866;4.332;2023-06-10T06:52:38;23.40;99.90
24152;DHT22;12311;50.866;4.332;2023-06-10T06:55:04;23.60;99.90
24152;DHT22;12311;50.866;4.332;2023-06-10T06:57:30;23.70;99.90
24152;DHT22;12311;50.866;4.332;2023-06-10T06:59:55;23.70;99.90
24152;DHT22;12311;50.866;4.332;2023-06-10T07:02:21;23.80;99.90
24152;DHT22;12311;50.866;4.332;2023-06-10T07:04:47;23.80;99.90
24152;DHT22;12311;50.866;4.332;2023-06-10T07:07:15;23.90;99.90
24152;DHT22;12311;50.866;4.332;2023-06-10T07:09:41;23.90;99.90
24152;DHT22;12311;50.866;4.332;2023-06-10T07:12:07;23.90;99.90
24152;DHT22;12311;50.866;4.332;2023-06-10T07:14:33;24.00;99.90
24152;DHT22;12311;50.866;4.332;2023-06-10T07:16:59;24.10;99.90
24152;DHT22;12311;50.866;4.332;2023-06-10T07:19:24;24.20;99.90
24152;DHT22;12311;50.866;4.332;2023-06-10T07:21:50;24.30;99.90
24152;DHT22;12311;50.866;4.332;2023-06-10T07:24:16;24.40;99.90
24152;DHT22;12311;50.866;4.332;2023-06-10T07:26:41;24.50;99.90
24152;DHT22;12311;50.866;4.332;2023-06-10T07:29:07;24.60;99.90
24152;DHT22;12311;50.866;4.332;2023-06-10T07:31:33;24.80;99.90
24152;DHT22;12311;50.866;4.332;2023-06-10T07:33:58;24.80;99.90
24152;DHT22;12311;50.866;4.332;2023-06-10T07:36:24;24.90;99.90
24152;DHT22;12311;50.866;4.332;2023-06-10T07:38:53;25.00;99.90
24152;DHT22;12311;50.866;4.332;2023-06-10T07:41:18;25.20;99.90
24152;DHT22;12311;50.866;4.332;2023-06-10T07:43:45;25.20;99.90
24152;DHT22;12311;50.866;4.332;2023-06-10T07:46:10;25.30;99.90
24152;DHT22;12311;50.866;4.332;2023-06-10T07:48:36;25.30;99.90
24152;DHT22;12311;50.866;4.332;2023-06-10T07:51:02;25.40;99.90
24152;DHT22;12311;50.866;4.332;2023-06-10T07:53:27;25.60;99.90
24152;DHT22;12311;50.866;4.332;2023-06-10T07:55:53;25.70;99.90
24152;DHT22;12311;50.866;4.332;2023-06-10T07:58:19;25.80;99.90
24152;DHT22;12311;50.866;4.332;2023-06-10T08:00:46;25.80;99.90
24152;DHT22;12311;50.866;4.332;2023-06-10T08:03:11;25.80;99.90
24152;DHT22;12311;50.866;4.332;2023-06-10T08:05:39;26.00;99.90
24152;DHT22;12311;50.866;4.332;2023-06-10T08:08:05;25.90;99.90
24152;DHT22;12311;50.866;4.332;2023-06-10T08:10:30;26.00;99.90
24152;DHT22;12311;50.866;4.332;2023-06-10T08:12:57;26.10;99.90
24152;DHT22;12311;50.866;4.332;2023-06-10T08:15:22;26.20;99.90
24152;DHT22;12311;50.866;4.332;2023-06-10T08:17:48;26.50;99.90
24152;DHT22;12311;50.866;4.332;2023-06-10T08:20:14;26.50;99.90
24152;DHT22;12311;50.866;4.332;2023-06-10T08:22:40;26.60;99.90
24152;DHT22;12311;50.866;4.332;2023-06-10T08:25:06;26.70;99.90
24152;DHT22;12311;50.866;4.332;2023-06-10T08:27:31;26.80;99.90
24152;DHT22;12311;50.866;4.332;2023-06-10T08:29:57;26.90;99.90
24152;DHT22;12311;50.866;4.332;2023-06-10T08:32:24;27.10;99.90
24152;DHT22;12311;50.866;4.332;2023-06-10T08:34:50;27.20;99.90
24152;DHT22;12311;50.866;4.332;2023-06-10T08:37:16;27.20;99.90
24152;DHT22;12311;50.866;4.332;2023-06-10T08:39:41;27.30;99.90
24152;DHT22;12311;50.866;4.332;2023-06-10T08:42:28;27.50;99.90
24152;DHT22;12311;50.866;4.332;2023-06-10T08:44:55;27.60;99.90
24152;DHT22;12311;50.866;4.332;2023-06-10T08:47:23;27.60;99.90
24152;DHT22;12311;50.866;4.332;2023-06-10T08:49:50;27.40;99.90
24152;DHT22;12311;50.866;4.332;2023-06-10T08:52:19;27.50;99.90
24152;DHT22;12311;50.866;4.332;2023-06-10T08:54:57;27.60;99.90
24152;DHT22;12311;50.866;4.332;2023-06-10T08:57:26;27.80;99.90
24152;DHT22;12311;50.866;4.332;2023-06-10T08:59:53;28.00;99.90
24152;DHT22;12311;50.866;4.332;2023-06-10T09:02:20;27.80;99.90
24152;DHT22;12311;50.866;4.332;2023-06-10T09:04:47;27.80;99.90
24152;DHT22;12311;50.866;4.332;2023-06-10T09:07:16;28.00;99.90
24152;DHT22;12311;50.866;4.332;2023-06-10T09:09:43;28.10;99.90
24152;DHT22;12311;50.866;4.332;2023-06-10T09:12:10;28.20;99.90
24152;DHT22;12311;50.866;4.332;2023-06-10T09:14:36;28.40;99.90
24152;DHT22;12311;50.866;4.332;2023-06-10T09:17:03;28.60;99.90
24152;DHT22;12311;50.866;4.332;2023-06-10T09:19:29;28.80;99.90
24152;DHT22;12311;50.866;4.332;2023-06-10T09:21:55;28.90;99.90
24152;DHT22;12311;50.866;4.332;2023-06-10T09:24:24;28.90;99.70
24152;DHT22;12311;50.866;4.332;2023-06-10T09:26:50;29.00;99.00
24152;DHT22;12311;50.866;4.332;2023-06-10T09:29:27;29.10;98.30
24152;DHT22;12311;50.866;4.332;2023-06-10T09:31:52;29.20;97.50
24152;DHT22;12311;50.866;4.332;2023-06-10T09:34:18;29.30;97.50
24152;DHT22;12311;50.866;4.332;2023-06-10T09:36:44;29.20;97.00
24152;DHT22;12311;50.866;4.332;2023-06-10T09:39:15;29.40;97.10
24152;DHT22;12311;50.866;4.332;2023-06-10T09:41:41;29.80;96.60
24152;DHT22;12311;50.866;4.332;2023-06-10T09:44:21;30.00;95.70
24152;DHT22;12311;50.866;4.332;2023-06-10T09:46:50;30.70;94.70
24152;DHT22;12311;50.866;4.332;2023-06-10T09:49:16;31.00;92.80
24152;DHT22;12311;50.866;4.332;2023-06-10T09:51:55;31.40;91.40
24152;DHT22;12311;50.866;4.332;2023-06-10T09:54:21;31.90;88.20
24152;DHT22;12311;50.866;4.332;2023-06-10T09:56:49;32.20;85.60
24152;DHT22;12311;50.866;4.332;2023-06-10T09:59:15;33.00;82.20
24152;DHT22;12311;50.866;4.332;2023-06-10T10:01:41;33.60;76.60
24152;DHT22;12311;50.866;4.332;2023-06-10T10:04:07;33.90;75.70
24152;DHT22;12311;50.866;4.332;2023-06-10T10:06:34;34.70;71.30
24152;DHT22;12311;50.866;4.332;2023-06-10T10:09:00;35.10;67.50
24152;DHT22;12311;50.866;4.332;2023-06-10T10:11:27;35.50;63.40
24152;DHT22;12311;50.866;4.332;2023-06-10T10:13:53;35.10;63.50
24152;DHT22;12311;50.866;4.332;2023-06-10T10:16:30;34.50;62.20
24152;DHT22;12311;50.866;4.332;2023-06-10T10:19:00;33.90;62.20
24152;DHT22;12311;50.866;4.332;2023-06-10T10:21:32;33.30;64.50
24152;DHT22;12311;50.866;4.332;2023-06-10T10:24:17;33.10;61.50
24152;DHT22;12311;50.866;4.332;2023-06-10T10:26:46;33.00;63.40
24152;DHT22;12311;50.866;4.332;2023-06-10T10:31:46;32.90;63.50
24152;DHT22;12311;50.866;4.332;2023-06-10T10:34:16;32.90;63.00
24152;DHT22;12311;50.866;4.332;2023-06-10T10:36:44;32.60;64.40
24152;DHT22;12311;50.866;4.332;2023-06-10T10:39:10;33.00;63.70
24152;DHT22;12311;50.866;4.332;2023-06-10T10:41:38;33.00;63.70
24152;DHT22;12311;50.866;4.332;2023-06-10T10:44:06;33.00;63.90
24152;DHT22;12311;50.866;4.332;2023-06-10T10:46:53;33.10;62.60
24152;DHT22;12311;50.866;4.332;2023-06-10T10:49:20;33.50;61.40
24152;DHT22;12311;50.866;4.332;2023-06-10T10:52:10;33.90;60.50
24152;DHT22;12311;50.866;4.332;2023-06-10T10:54:37;34.40;59.10
24152;DHT22;12311;50.866;4.332;2023-06-10T10:57:14;34.90;58.20
24152;DHT22;12311;50.866;4.332;2023-06-10T11:05:09;34.90;54.50
24152;DHT22;12311;50.866;4.332;2023-06-10T11:07:35;34.90;53.40
24152;DHT22;12311;50.866;4.332;2023-06-10T11:10:12;35.00;52.40
24152;DHT22;12311;50.866;4.332;2023-06-10T11:12:53;35.50;50.00
24152;DHT22;12311;50.866;4.332;2023-06-10T11:15:25;35.50;48.80
24152;DHT22;12311;50.866;4.332;2023-06-10T11:18:22;35.60;48.70
24152;DHT22;12311;50.866;4.332;2023-06-10T11:29:01;35.10;49.80
24152;DHT22;12311;50.866;4.332;2023-06-10T11:31:41;35.70;49.50
24152;DHT22;12311;50.866;4.332;2023-06-10T11:34:08;36.00;47.80
24152;DHT22;12311;50.866;4.332;2023-06-10T11:36:39;36.10;47.20
24152;DHT22;12311;50.866;4.332;2023-06-10T11:39:06;36.90;45.50
24152;DHT22;12311;50.866;4.332;2023-06-10T11:41:33;36.60;46.40
24152;DHT22;12311;50.866;4.332;2023-06-10T11:44:10;37.10;46.80
24152;DHT22;12311;50.866;4.332;2023-06-10T11:46:37;37.70;46.00
24152;DHT22;12311;50.866;4.332;2023-06-10T11:49:05;37.90;46.00
24152;DHT22;12311;50.866;4.332;2023-06-10T11:51:49;37.90;45.60
24152;DHT22;12311;50.866;4.332;2023-06-10T11:54:15;38.30;44.60
24152;DHT22;12311;50.866;4.332;2023-06-10T11:56:41;38.10;44.40
24152;DHT22;12311;50.866;4.332;2023-06-10T11:59:07;38.50;43.20
24152;DHT22;12311;50.866;4.332;2023-06-10T12:01:35;38.40;42.40
24152;DHT22;12311;50.866;4.332;2023-06-10T12:04:05;37.80;42.50
24152;DHT22;12311;50.866;4.332;2023-06-10T12:06:42;38.10;42.30
24152;DHT22;12311;50.866;4.332;2023-06-10T12:09:29;38.50;42.70
24152;DHT22;12311;50.866;4.332;2023-06-10T12:11:57;38.90;41.70
24152;DHT22;12311;50.866;4.332;2023-06-10T12:14:50;39.50;40.60
24152;DHT22;12311;50.866;4.332;2023-06-10T12:17:17;40.20;40.00
24152;DHT22;12311;50.866;4.332;2023-06-10T12:19:42;40.00;40.50
24152;DHT22;12311;50.866;4.332;2023-06-10T12:22:08;39.90;41.10
24152;DHT22;12311;50.866;4.332;2023-06-10T12:24:46;39.90;41.10
24152;DHT22;12311;50.866;4.332;2023-06-10T12:27:23;40.70;40.30
24152;DHT22;12311;50.866;4.332;2023-06-10T12:29:52;40.20;39.60
24152;DHT22;12311;50.866;4.332;2023-06-10T12:32:21;39.70;39.80
24152;DHT22;12311;50.866;4.332;2023-06-10T12:35:03;39.60;40.70
24152;DHT22;12311;50.866;4.332;2023-06-10T12:37:30;40.20;40.40
24152;DHT22;12311;50.866;4.332;2023-06-10T12:39:55;40.50;39.50
24152;DHT22;12311;50.866;4.332;2023-06-10T12:42:25;41.50;38.80
24152;DHT22;12311;50.866;4.332;2023-06-10T12:44:53;42.20;38.10
24152;DHT22;12311;50.866;4.332;2023-06-10T12:47:20;41.90;37.20
24152;DHT22;12311;50.866;4.332;2023-06-10T12:49:45;42.00;37.40
24152;DHT22;12311;50.866;4.332;2023-06-10T12:52:11;42.00;37.00
24152;DHT22;12311;50.866;4.332;2023-06-10T12:54:37;41.10;37.00
24152;DHT22;12311;50.866;4.332;2023-06-10T12:57:03;40.40;38.00
24152;DHT22;12311;50.866;4.332;2023-06-10T12:59:29;40.70;37.90
24152;DHT22;12311;50.866;4.332;2023-06-10T13:01:55;41.70;37.10
24152;DHT22;12311;50.866;4.332;2023-06-10T13:04:21;42.40;36.40
24152;DHT22;12311;50.866;4.332;2023-06-10T13:06:48;42.40;36.40
24152;DHT22;12311;50.866;4.332;2023-06-10T13:09:15;42.60;35.70
24152;DHT22;12311;50.866;4.332;2023-06-10T13:11:41;41.70;36.20
24152;DHT22;12311;50.866;4.332;2023-06-10T13:14:08;41.50;36.30
24152;DHT22;12311;50.866;4.332;2023-06-10T13:16:35;40.50;37.00
24152;DHT22;12311;50.866;4.332;2023-06-10T13:19:03;39.10;38.70
24152;DHT22;12311;50.866;4.332;2023-06-10T13:21:31;37.70;41.00
24152;DHT22;12311;50.866;4.332;2023-06-10T13:23:57;37.90;40.50
24152;DHT22;12311;50.866;4.332;2023-06-10T13:26:24;37.90;40.30
24152;DHT22;12311;50.866;4.332;2023-06-10T13:28:49;37.30;40.60
24152;DHT22;12311;50.866;4.332;2023-06-10T13:31:15;37.10;41.70
24152;DHT22;12311;50.866;4.332;2023-06-10T13:33:41;37.20;41.50
24152;DHT22;12311;50.866;4.332;2023-06-10T13:36:09;36.50;42.50
24152;DHT22;12311;50.866;4.332;2023-06-10T13:38:35;35.80;42.60
24152;DHT22;12311;50.866;4.332;2023-06-10T13:41:00;35.80;43.40
24152;DHT22;12311;50.866;4.332;2023-06-10T13:43:26;36.10;42.40
24152;DHT22;12311;50.866;4.332;2023-06-10T13:45:52;37.60;41.70
24152;DHT22;12311;50.866;4.332;2023-06-10T13:48:17;38.80;40.20
24152;DHT22;12311;50.866;4.332;2023-06-10T13:50:43;39.80;38.30
24152;DHT22;12311;50.866;4.332;2023-06-10T13:53:11;40.00;39.00
24152;DHT22;12311;50.866;4.332;2023-06-10T13:55:37;39.50;38.10
24152;DHT22;12311;50.866;4.332;2023-06-10T13:58:02;39.50;38.20
24152;DHT22;12311;50.866;4.332;2023-06-10T14:00:28;40.30;38.00
24152;DHT22;12311;50.866;4.332;2023-06-10T14:02:54;41.40;37.30
24152;DHT22;12311;50.866;4.332;2023-06-10T14:05:20;41.20;36.30
24152;DHT22;12311;50.866;4.332;2023-06-10T14:07:45;41.30;36.30
24152;DHT22;12311;50.866;4.332;2023-06-10T14:10:11;41.80;36.30
24152;DHT22;12311;50.866;4.332;2023-06-10T14:12:37;42.50;35.30
24152;DHT22;12311;50.866;4.332;2023-06-10T14:15:03;42.90;35.90
24152;DHT22;12311;50.866;4.332;2023-06-10T14:17:28;42.30;35.00
24152;DHT22;12311;50.866;4.332;2023-06-10T14:19:54;43.00;35.10
24152;DHT22;12311;50.866;4.332;2023-06-10T14:22:20;43.30;34.20
24152;DHT22;12311;50.866;4.332;2023-06-10T14:24:45;43.40;34.60
24152;DHT22;12311;50.866;4.332;2023-06-10T14:27:12;43.60;34.00
24152;DHT22;12311;50.866;4.332;2023-06-10T14:29:38;43.80;33.70
24152;DHT22;12311;50.866;4.332;2023-06-10T14:32:04;43.60;34.30
24152;DHT22;12311;50.866;4.332;2023-06-10T14:34:30;43.90;33.70
24152;DHT22;12311;50.866;4.332;2023-06-10T14:36:59;43.60;33.10
24152;DHT22;12311;50.866;4.332;2023-06-10T14:39:25;43.40;33.30
24152;DHT22;12311;50.866;4.332;2023-06-10T14:41:51;41.40;34.60
24152;DHT22;12311;50.866;4.332;2023-06-10T14:44:18;40.50;35.80
24152;DHT22;12311;50.866;4.332;2023-06-10T14:46:44;39.50;36.90
24152;DHT22;12311;50.866;4.332;2023-06-10T14:49:09;38.40;37.80
24152;DHT22;12311;50.866;4.332;2023-06-10T14:51:35;38.40;38.50
24152;DHT22;12311;50.866;4.332;2023-06-10T14:54:01;39.70;37.20
24152;DHT22;12311;50.866;4.332;2023-06-10T14:56:27;40.20;36.60
24152;DHT22;12311;50.866;4.332;2023-06-10T14:58:52;40.60;37.00
24152;DHT22;12311;50.866;4.332;2023-06-10T15:01:18;41.50;35.10
24152;DHT22;12311;50.866;4.332;2023-06-10T15:03:44;41.60;34.90
24152;DHT22;12311;50.866;4.332;2023-06-10T15:06:10;41.70;34.80
24152;DHT22;12311;50.866;4.332;2023-06-10T15:08:36;41.30;35.30
24152;DHT22;12311;50.866;4.332;2023-06-10T15:11:01;42.00;34.70
24152;DHT22;12311;50.866;4.332;2023-06-10T15:13:28;41.00;35.00
24152;DHT22;12311;50.866;4.332;2023-06-10T15:15:53;40.50;36.40
24152;DHT22;12311;50.866;4.332;2023-06-10T15:18:19;40.60;36.10
24152;DHT22;12311;50.866;4.332;2023-06-10T15:20:45;40.80;35.60
24152;DHT22;12311;50.866;4.332;2023-06-10T15:23:10;40.70;35.10
24152;DHT22;12311;50.866;4.332;2023-06-10T15:25:36;40.50;35.30
24152;DHT22;12311;50.866;4.332;2023-06-10T15:28:02;39.30;36.60
24152;DHT22;12311;50.866;4.332;2023-06-10T15:30:28;38.70;37.30
24152;DHT22;12311;50.866;4.332;2023-06-10T15:32:53;38.30;37.90
24152;DHT22;12311;50.866;4.332;2023-06-10T15:35:19;38.10;37.90
24152;DHT22;12311;50.866;4.332;2023-06-10T15:37:45;37.70;38.30
24152;DHT22;12311;50.866;4.332;2023-06-10T15:40:11;37.20;39.30
24152;DHT22;12311;50.866;4.332;2023-06-10T15:42:36;36.90;39.40
24152;DHT22;12311;50.866;4.332;2023-06-10T15:45:02;36.80;39.90
24152;DHT22;12311;50.866;4.332;2023-06-10T15:47:28;36.30;39.90
24152;DHT22;12311;50.866;4.332;2023-06-10T15:49:54;35.90;40.50
24152;DHT22;12311;50.866;4.332;2023-06-10T15:52:19;35.80;41.40
24152;DHT22;12311;50.866;4.332;2023-06-10T15:54:45;35.90;41.10